Time;durP1;ratioP1;P1;durP2;ratioP2;P2;SDS_P1;SDS_P2;PMS_P1;PMS_P2;Temp;Humidity;BMP_temperature;BMP_pressure;BME280_temperature;BME280_humidity;BME280_pressure;Samples;Min_cycle;Max_cycle;Signal;HPM_P1;HPM_P2
2020/12/06 00:01:24;;;;;;;6.65;4.18;;;;;;;25.86;30.84;94807.34;4938291;28;20707;-36
2020/12/06 00:03:50;;;;;;;9.55;4.18;;;;;;;25.86;30.94;94807.34;4946145;28;20043;-34
2020/12/06 00:06:19;;;;;;;8.23;3.78;;;;;;;25.84;30.98;94815.34;4936022;28;20047;-34
2020/12/06 00:08:47;;;;;;;8.43;4.50;;;;;;;25.86;31.01;94823.94;4940940;28;20745;-34
2020/12/06 00:11:14;;;;;;;8.38;4.13;;;;;;;25.86;30.98;94815.22;4932169;28;20075;-34
2020/12/06 00:13:40;;;;;;;8.57;4.25;;;;;;;25.86;30.81;94807.34;4940548;28;20066;-34
2020/12/06 00:16:09;;;;;;;7.78;3.55;;;;;;;25.86;30.85;94805.56;4941301;28;20052;-35
2020/12/06 00:18:34;;;;;;;7.32;4.10;;;;;;;25.87;30.87;94806.38;4955552;28;20416;-34
2020/12/06 00:21:00;;;;;;;7.43;4.07;;;;;;;25.88;30.70;94797.53;4941247;28;20043;-33
2020/12/06 00:23:26;;;;;;;6.78;3.63;;;;;;;25.87;30.75;94793.25;4929929;28;20404;-34
2020/12/06 00:25:52;;;;;;;6.93;3.67;;;;;;;25.87;30.88;94798.50;4938045;28;20276;-34
2020/12/06 00:28:18;;;;;;;6.78;3.80;;;;;;;25.88;30.74;94800.16;4946399;28;20027;-34
2020/12/06 00:30:44;;;;;;;6.22;3.55;;;;;;;25.76;30.66;94771.41;4934426;28;20040;-33
2020/12/06 00:33:09;;;;;;;7.88;3.67;;;;;;;25.87;30.78;94788.84;4943671;28;20137;-35
2020/12/06 00:35:35;;;;;;;8.55;3.58;;;;;;;25.87;31.32;94777.50;4945369;28;20409;-34
2020/12/06 00:38:01;;;;;;;7.82;3.92;;;;;;;25.86;30.64;94776.69;4945933;28;20039;-35
2020/12/06 00:40:27;;;;;;;9.93;3.25;;;;;;;25.83;30.71;94767.28;4951827;28;21431;-34
2020/12/06 00:42:52;;;;;;;5.82;3.50;;;;;;;25.87;30.68;94756.53;4947461;28;20065;-33
2020/12/06 00:45:18;;;;;;;5.38;3.45;;;;;;;25.86;30.65;94754.88;4935831;28;20102;-35
2020/12/06 00:47:43;;;;;;;7.78;3.80;;;;;;;25.85;30.74;94732.22;4940140;28;20428;-33
2020/12/06 00:50:09;;;;;;;4.82;3.08;;;;;;;25.86;30.65;94718.13;4942066;28;20536;-34
2020/12/06 00:52:35;;;;;;;4.95;3.08;;;;;;;25.85;30.74;94706.00;4942755;28;20821;-34
2020/12/06 00:55:01;;;;;;;6.57;3.55;;;;;;;25.83;30.60;94696.44;4940265;28;20371;-36
2020/12/06 00:57:27;;;;;;;5.35;3.50;;;;;;;25.84;30.58;94694.66;4943718;28;20041;-34
2020/12/06 00:59:53;;;;;;;6.47;3.17;;;;;;;25.85;30.59;94706.00;4940334;28;20046;-36
2020/12/06 01:02:19;;;;;;;4.97;3.22;;;;;;;25.84;30.60;94694.66;4935591;28;20082;-35
2020/12/06 01:04:45;;;;;;;7.38;3.60;;;;;;;25.81;30.75;94695.75;4938050;28;20058;-34
2020/12/06 01:07:11;;;;;;;4.85;2.90;;;;;;;25.83;30.66;94693.81;4941644;28;20043;-34
2020/12/06 01:09:36;;;;;;;5.00;3.22;;;;;;;25.82;30.81;94702.66;4935815;28;20536;-35
2020/12/06 01:12:03;;;;;;;5.53;3.47;;;;;;;25.82;30.83;94702.66;4945553;28;20545;-34
2020/12/06 01:14:29;;;;;;;5.60;3.45;;;;;;;25.81;30.82;94706.25;4939644;28;20519;-34
2020/12/06 01:16:55;;;;;;;6.07;3.42;;;;;;;25.81;30.77;94716.75;4944267;28;20332;-34
2020/12/06 01:19:21;;;;;;;5.88;3.22;;;;;;;25.81;30.62;94736.88;4940550;28;20043;-37
2020/12/06 01:21:48;;;;;;;5.65;3.38;;;;;;;25.76;30.86;94747.78;4939172;28;20552;-32
2020/12/06 01:24:14;;;;;;;7.30;2.97;;;;;;;25.80;30.68;94764.94;4936458;28;20118;-35
2020/12/06 01:26:40;;;;;;;4.15;2.72;;;;;;;25.80;30.65;94772.81;4942097;28;20103;-33
2020/12/06 01:29:06;;;;;;;4.32;2.97;;;;;;;25.80;30.85;94778.06;4940540;28;20449;-35
2020/12/06 01:31:32;;;;;;;13.93;4.75;;;;;;;25.78;29.41;94779.16;4935652;28;20071;-35
2020/12/06 01:33:57;;;;;;;5.43;3.70;;;;;;;25.76;29.96;94781.91;4949820;28;20050;-36
2020/12/06 01:36:23;;;;;;;5.95;3.30;;;;;;;25.76;30.49;94781.91;4938232;28;20738;-36
2020/12/06 01:38:49;;;;;;;5.95;3.47;;;;;;;25.74;30.70;94768.06;4933559;28;20057;-36
2020/12/06 01:41:18;;;;;;;3.95;2.85;;;;;;;25.75;30.77;94761.88;4945644;28;20324;-34
2020/12/06 01:43:56;;;;;;;4.60;3.13;;;;;;;25.75;30.44;94754.00;4941379;28;22615;-34
2020/12/06 01:46:22;;;;;;;5.85;2.65;;;;;;;25.74;30.55;94752.31;4941295;28;20051;-36
2020/12/06 01:48:47;;;;;;;5.13;2.97;;;;;;;25.77;30.78;94761.72;4945931;28;20047;-35
2020/12/06 01:51:15;;;;;;;5.50;3.25;;;;;;;25.76;30.68;94760.91;4942151;28;20074;-33
2020/12/06 01:53:41;;;;;;;4.68;2.90;;;;;;;25.76;30.55;94760.06;4937357;28;20035;-36
2020/12/06 01:56:06;;;;;;;6.53;2.78;;;;;;;25.75;30.75;94764.50;4939808;28;20047;-35
2020/12/06 01:58:32;;;;;;;5.93;3.10;;;;;;;25.76;30.55;94760.91;4942278;28;20050;-33
2020/12/06 02:00:57;;;;;;;4.35;2.85;;;;;;;25.76;30.63;94753.03;4941579;28;21277;-36
2020/12/06 02:03:23;;;;;;;6.18;3.20;;;;;;;25.73;30.60;94744.59;4932244;28;20050;-35
2020/12/06 02:05:49;;;;;;;12.40;2.92;;;;;;;25.77;30.59;94752.06;4934680;28;20074;-34
2020/12/06 02:08:15;;;;;;;5.45;2.67;;;;;;;25.78;30.54;94755.53;4940875;28;20477;-35
2020/12/06 02:10:40;;;;;;;5.95;3.10;;;;;;;25.77;30.45;94746.81;4942522;28;20051;-33
2020/12/06 02:13:06;;;;;;;4.50;2.70;;;;;;;25.75;30.57;94735.63;4928223;28;20047;-35
2020/12/06 02:15:33;;;;;;;5.10;2.78;;;;;;;25.76;30.49;94732.03;4938249;28;20355;-34
2020/12/06 02:17:59;;;;;;;4.10;2.75;;;;;;;25.76;30.49;94746.94;4939274;28;20047;-33
2020/12/06 02:20:24;;;;;;;3.78;2.50;;;;;;;25.78;30.54;94745.84;4942505;28;20058;-34
2020/12/06 02:22:50;;;;;;;3.47;2.50;;;;;;;25.78;30.61;94732.72;4933297;28;20066;-35
2020/12/06 02:25:16;;;;;;;4.45;2.65;;;;;;;25.77;30.52;94731.09;4941950;28;20038;-32
2020/12/06 02:27:41;;;;;;;4.97;2.60;;;;;;;25.78;30.45;94717.00;4939306;28;20491;-32
2020/12/06 02:30:07;;;;;;;4.10;2.78;;;;;;;25.77;30.52;94709.25;4939772;28;20054;-33
2020/12/06 02:32:33;;;;;;;3.60;2.67;;;;;;;25.72;30.55;94691.31;4934962;28;20046;-35
2020/12/06 02:34:59;;;;;;;5.20;2.55;;;;;;;25.78;30.44;94700.44;4934738;28;20062;-34
2020/12/06 02:37:25;;;;;;;4.13;2.75;;;;;;;25.76;30.31;94697.94;4941430;28;20086;-37
2020/12/06 02:39:51;;;;;;;4.82;2.60;;;;;;;25.75;30.38;94685.78;4940612;28;20497;-33
2020/12/06 02:42:16;;;;;;;3.25;2.30;;;;;;;25.76;30.33;94676.97;4954642;28;20556;-35
2020/12/06 02:44:42;;;;;;;6.78;2.70;;;;;;;25.71;30.26;94647.69;4936486;28;20069;-36
2020/12/06 02:47:08;;;;;;;3.67;2.42;;;;;;;25.75;30.45;94664.81;4937271;28;20042;-34
2020/12/06 02:49:34;;;;;;;3.85;2.28;;;;;;;25.74;30.41;94691.97;4944053;28;20047;-34
2020/12/06 02:52:00;;;;;;;3.72;2.70;;;;;;;25.60;30.49;94681.84;4945864;28;20038;-33
2020/12/06 02:54:25;;;;;;;4.15;2.70;;;;;;;25.75;30.46;94696.28;4938954;28;20046;-33
2020/12/06 02:56:51;;;;;;;3.97;2.20;;;;;;;25.76;30.42;94691.84;4940213;28;20406;-34
2020/12/06 02:59:17;;;;;;;5.07;2.42;;;;;;;25.76;30.44;94695.31;4936535;28;20077;-35
2020/12/06 03:01:42;;;;;;;3.90;2.45;;;;;;;25.76;30.49;94703.19;4938188;28;20063;-42
2020/12/06 03:04:08;;;;;;;3.38;2.22;;;;;;;25.77;30.41;94694.34;4939174;28;20070;-32
2020/12/06 03:06:33;;;;;;;3.03;2.20;;;;;;;25.75;30.58;94680.56;4934213;28;20039;-34
2020/12/06 03:08:59;;;;;;;3.38;2.30;;;;;;;25.75;30.45;94685.78;4936419;28;20039;-35
2020/12/06 03:11:25;;;;;;;4.90;2.30;;;;;;;25.75;30.42;94688.41;4938656;28;20047;-36
2020/12/06 03:13:51;;;;;;;3.28;2.20;;;;;;;25.75;30.55;94698.91;4946291;28;20078;-35
2020/12/06 03:16:16;;;;;;;3.00;2.15;;;;;;;25.75;30.45;94690.19;4942974;28;20035;-36
2020/12/06 03:18:42;;;;;;;3.10;1.85;;;;;;;25.75;30.35;94701.53;4942243;28;20512;-37
2020/12/06 03:21:09;;;;;;;3.28;2.10;;;;;;;25.75;30.41;94696.28;4945645;28;20094;-34
2020/12/06 03:23:34;;;;;;;2.92;1.98;;;;;;;25.75;30.53;94701.53;4936669;28;20051;-34
2020/12/06 03:26:00;;;;;;;3.38;2.15;;;;;;;25.75;30.55;94700.69;4948229;28;20533;-36
2020/12/06 03:28:26;;;;;;;4.20;2.13;;;;;;;25.75;30.42;94695.44;4941591;28;20035;-33
2020/12/06 03:30:51;;;;;;;3.78;1.88;;;;;;;25.74;30.39;94684.13;4941390;28;20053;-36
2020/12/06 03:33:17;;;;;;;3.55;2.30;;;;;;;25.75;30.54;94691.03;4948682;28;20184;-30
2020/12/06 03:35:43;;;;;;;2.60;1.90;;;;;;;25.75;30.30;94704.16;4944775;28;20531;-33
2020/12/06 03:38:09;;;;;;;2.90;2.10;;;;;;;25.75;30.43;94726.94;4947152;28;20046;-36
2020/12/06 03:40:35;;;;;;;6.68;3.03;;;;;;;25.73;30.09;94708.69;4939141;28;20067;-34
2020/12/06 03:43:00;;;;;;;2.63;2.42;;;;;;;25.74;29.45;94702.47;4947406;28;20865;-34
2020/12/06 03:45:26;;;;;;;3.42;2.40;;;;;;;25.72;30.19;94687.84;4938822;28;20823;-34
2020/12/06 03:47:55;;;;;;;3.05;1.95;;;;;;;25.71;30.40;94697.50;4948465;28;20432;-34
2020/12/06 03:50:20;;;;;;;3.22;2.20;;;;;;;25.70;30.38;94687.97;4931461;28;20039;-34
2020/12/06 03:52:46;;;;;;;5.15;2.80;;;;;;;25.64;29.65;94691.13;4933180;28;20481;-34
2020/12/06 03:55:14;;;;;;;5.45;2.70;;;;;;;25.62;29.53;94695.69;4967044;23;21435;-31
2020/12/06 03:57:40;;;;;;;3.75;2.35;;;;;;;25.63;30.16;94713.88;4963064;28;20049;-29
2020/12/06 04:00:05;;;;;;;3.58;1.95;;;;;;;25.61;30.41;94699.25;4970298;28;20554;-32
2020/12/06 04:02:31;;;;;;;4.97;2.20;;;;;;;25.61;30.70;94704.50;4963010;28;20043;-30
2020/12/06 04:04:57;;;;;;;6.82;2.15;;;;;;;25.61;30.71;94699.25;4962440;28;20098;-29
2020/12/06 04:07:23;;;;;;;3.67;2.20;;;;;;;25.61;30.68;94688.75;4960558;28;20234;-32
2020/12/06 04:09:49;;;;;;;4.47;1.80;;;;;;;25.61;30.56;94678.25;4959081;28;20047;-28
2020/12/06 04:12:15;;;;;;;2.30;1.90;;;;;;;25.61;30.44;94686.13;4968148;28;20416;-29
2020/12/06 04:14:41;;;;;;;2.90;2.10;;;;;;;25.63;30.57;94694.72;4964370;28;20035;-31
2020/12/06 04:17:06;;;;;;;2.35;1.83;;;;;;;25.63;30.58;94686.84;4966208;28;20039;-31
2020/12/06 04:19:32;;;;;;;3.13;2.00;;;;;;;25.63;30.63;94686.84;4963976;28;20100;-30
2020/12/06 04:21:57;;;;;;;2.65;1.90;;;;;;;25.64;30.55;94683.25;4957778;28;20215;-29
2020/12/06 04:24:23;;;;;;;1.77;1.63;;;;;;;25.64;30.61;94697.22;4964563;28;20039;-29
2020/12/06 04:26:49;;;;;;;2.03;1.58;;;;;;;25.64;30.50;94705.09;4960603;28;20073;-29
2020/12/06 04:29:15;;;;;;;2.17;1.70;;;;;;;25.65;30.72;94708.50;4958864;28;20031;-31
2020/12/06 04:31:40;;;;;;;2.55;1.90;;;;;;;25.64;30.55;94705.09;4960498;28;20174;-32
2020/12/06 04:34:05;;;;;;;2.78;1.98;;;;;;;25.64;30.56;94697.22;4967862;28;20100;-30
2020/12/06 04:36:31;;;;;;;4.82;1.92;;;;;;;25.67;30.49;94698.75;4960841;28;20527;-29
2020/12/06 04:38:57;;;;;;;3.30;1.88;;;;;;;25.67;30.52;94699.56;4960416;28;20065;-31
2020/12/06 04:41:25;;;;;;;2.28;1.70;;;;;;;25.67;30.48;94709.22;4958776;28;20046;-32
2020/12/06 04:43:50;;;;;;;2.33;1.60;;;;;;;25.67;30.71;94714.47;4965884;28;20626;-30
2020/12/06 04:46:17;;;;;;;2.40;1.67;;;;;;;25.67;30.70;94717.09;4955484;28;20046;-30
2020/12/06 04:48:51;;;;;;;3.92;1.92;;;;;;;25.65;30.57;94716.38;4963692;28;20467;-31
2020/12/06 04:51:17;;;;;;;2.33;1.95;;;;;;;25.66;30.52;94720.69;4956174;28;20037;-31
2020/12/06 04:53:51;;;;;;;2.50;1.77;;;;;;;25.67;30.55;94720.53;4965020;28;20042;-32
2020/12/06 04:56:17;;;;;;;3.00;1.88;;;;;;;25.69;30.41;94717.78;4960273;28;20125;-33
2020/12/06 04:58:43;;;;;;;2.42;1.77;;;;;;;25.69;30.36;94717.78;4949708;28;20047;-39
2020/12/06 05:01:08;;;;;;;3.00;2.22;;;;;;;25.69;30.38;94720.41;4955541;28;20187;-34
2020/12/06 05:03:35;;;;;;;2.70;2.10;;;;;;;25.68;30.42;94730.09;4958187;28;20517;-35
2020/12/06 05:06:00;;;;;;;2.47;1.63;;;;;;;25.68;30.26;94724.00;4952581;28;20188;-35
2020/12/06 05:08:25;;;;;;;2.38;1.88;;;;;;;25.68;30.52;94719.59;4958058;28;20049;-35
2020/12/06 05:10:51;;;;;;;2.40;1.80;;;;;;;25.69;30.30;94712.53;4954855;28;20761;-34
2020/12/06 05:13:18;;;;;;;2.63;1.80;;;;;;;25.69;30.54;94717.78;4958817;28;22350;-35
2020/12/06 05:15:44;;;;;;;2.72;1.73;;;;;;;25.69;30.41;94712.53;4959486;28;20046;-33
2020/12/06 05:18:09;;;;;;;2.83;1.85;;;;;;;25.70;30.35;94714.19;4950711;28;20398;-34
2020/12/06 05:20:35;;;;;;;2.95;1.95;;;;;;;25.69;30.30;94702.88;4951472;28;20035;-38
2020/12/06 05:23:01;;;;;;;3.10;1.90;;;;;;;25.70;30.58;94708.94;4956356;28;20169;-38
2020/12/06 05:25:27;;;;;;;3.22;2.10;;;;;;;25.70;30.24;94715.03;4958197;28;20322;-35
2020/12/06 05:27:53;;;;;;;2.03;1.80;;;;;;;25.71;30.36;94721.13;4957076;28;20507;-36
2020/12/06 05:30:19;;;;;;;5.82;2.03;;;;;;;25.72;30.36;94716.69;4960495;28;20424;-35
2020/12/06 05:32:44;;;;;;;3.97;2.00;;;;;;;25.71;30.28;94723.75;4955883;28;20035;-36
2020/12/06 05:35:11;;;;;;;2.10;1.90;;;;;;;25.69;30.29;94723.88;4959075;28;20042;-34
2020/12/06 05:37:37;;;;;;;3.22;1.88;;;;;;;25.70;30.33;94729.94;4960795;28;20219;-35
2020/12/06 05:40:06;;;;;;;3.28;2.13;;;;;;;25.70;30.12;94735.19;4952179;28;20552;-34
2020/12/06 05:42:36;;;;;;;2.40;1.90;;;;;;;25.70;30.26;94714.19;4954752;28;20518;-36
2020/12/06 05:45:02;;;;;;;2.65;1.67;;;;;;;25.69;30.47;94696.81;4959794;28;20050;-38
2020/12/06 05:47:28;;;;;;;2.15;1.80;;;;;;;25.70;30.28;94714.19;4957950;28;20035;-34
2020/12/06 05:49:57;;;;;;;2.17;1.70;;;;;;;25.71;30.44;94723.75;4959788;28;20042;-39
2020/12/06 05:52:23;;;;;;;1.80;1.58;;;;;;;25.70;30.26;94719.44;4957085;28;20047;-37
2020/12/06 05:54:49;;;;;;;3.30;2.15;;;;;;;25.71;30.38;94721.13;4957803;28;20144;-33
2020/12/06 05:57:15;;;;;;;2.55;1.52;;;;;;;25.72;30.33;94722.78;4959578;28;20554;-38
2020/12/06 05:59:41;;;;;;;2.45;1.60;;;;;;;25.73;30.37;94729.69;4958070;28;20043;-35
2020/12/06 06:02:07;;;;;;;2.22;1.70;;;;;;;25.71;30.52;94718.50;4951224;28;20074;-33
2020/12/06 06:04:39;;;;;;;3.15;1.65;;;;;;;25.72;30.49;94722.78;4961283;28;20078;-36
2020/12/06 06:07:08;;;;;;;2.70;1.60;;;;;;;25.73;30.43;94718.38;4959481;28;20034;-37
2020/12/06 06:09:40;;;;;;;2.78;1.63;;;;;;;25.72;30.52;94716.69;4960960;28;20065;-36
2020/12/06 06:12:17;;;;;;;;;;;;;;;25.73;30.42;94723.63;4948907;28;20453;-33
2020/12/06 06:14:43;;;;;;;2.10;1.35;;;;;;;25.72;30.52;94722.78;4971599;28;20220;-36
2020/12/06 06:17:08;;;;;;;2.42;1.83;;;;;;;25.72;30.40;94733.28;4959572;28;20445;-39
2020/12/06 06:19:35;;;;;;;2.88;1.60;;;;;;;25.73;30.46;94740.16;4961974;28;20049;-34
2020/12/06 06:22:01;;;;;;;2.63;1.48;;;;;;;25.73;30.58;94728.88;4960347;28;20047;-34
2020/12/06 06:24:27;;;;;;;1.95;1.73;;;;;;;25.74;30.56;94723.47;4956454;28;20054;-39
2020/12/06 06:26:53;;;;;;;2.30;1.52;;;;;;;25.75;30.50;94716.44;4958136;28;20526;-35
2020/12/06 06:29:19;;;;;;;2.45;1.60;;;;;;;25.75;30.43;94726.94;4957404;28;20051;-36
2020/12/06 06:31:50;;;;;;;1.67;1.52;;;;;;;25.76;30.44;94734.66;4956896;28;20148;-36
2020/12/06 06:34:16;;;;;;;2.20;1.60;;;;;;;25.76;30.42;94750.41;4953007;28;20073;-35
2020/12/06 06:36:43;;;;;;;2.20;1.70;;;;;;;25.77;30.46;94761.72;4960279;28;20053;-36
2020/12/06 06:39:09;;;;;;;1.88;1.40;;;;;;;25.77;30.54;94773.06;4963189;28;20089;-34
2020/12/06 06:41:37;;;;;;;1.65;1.45;;;;;;;25.79;30.46;94779.03;4947408;28;20801;-36
2020/12/06 06:44:20;;;;;;;2.15;1.30;;;;;;;25.79;30.42;94784.25;4955540;28;20108;-34
2020/12/06 06:46:46;;;;;;;1.63;1.30;;;;;;;25.79;30.52;94792.13;4951065;28;20031;-35
2020/12/06 06:49:12;;;;;;;2.13;1.58;;;;;;;25.80;30.40;94788.53;4960955;28;20046;-39
2020/12/06 06:51:38;;;;;;;2.90;1.88;;;;;;;25.81;30.55;94784.09;4964567;28;20273;-34
2020/12/06 06:54:07;;;;;;;1.83;1.65;;;;;;;25.81;30.43;94779.72;4952989;28;20690;-37
2020/12/06 06:56:51;;;;;;;5.80;1.50;;;;;;;25.81;30.68;94784.94;4962973;28;20043;-39
2020/12/06 06:59:39;;;;;;;4.70;1.48;;;;;;;25.83;30.54;94790.06;4959863;28;20082;-35
2020/12/06 07:02:05;;;;;;;2.40;1.23;;;;;;;25.85;30.42;94797.81;4959602;28;22315;-37
2020/12/06 07:04:31;;;;;;;3.92;2.05;;;;;;;25.85;30.57;94795.19;4961323;28;20090;-36
2020/12/06 07:06:57;;;;;;;2.25;1.50;;;;;;;25.83;30.39;94793.50;4948400;28;20042;-38
2020/12/06 07:09:27;;;;;;;8.05;2.20;;;;;;;25.83;30.40;94792.69;4949745;28;20050;-35
2020/12/06 07:11:54;;;;;;;4.20;2.30;;;;;;;25.83;30.38;94792.69;4955396;28;20152;-36
2020/12/06 07:14:23;;;;;;;26.30;3.03;;;;;;;25.81;30.23;94794.59;4964396;28;20408;-36
2020/12/06 07:16:50;;;;;;;8.25;2.78;;;;;;;25.79;30.14;94789.50;4958534;28;20078;-33
2020/12/06 07:19:16;;;;;;;3.95;2.97;;;;;;;25.77;30.25;94783.56;4963222;28;23564;-36
2020/12/06 07:21:42;;;;;;;11.68;3.15;;;;;;;25.77;30.12;94787.97;4962996;28;20453;-36
2020/12/06 07:24:08;;;;;;;5.63;3.53;;;;;;;25.74;29.97;94783.81;4951277;28;20109;-36
2020/12/06 07:26:33;;;;;;;6.82;2.70;;;;;;;25.73;30.14;94776.91;4957216;28;20042;-35
2020/12/06 07:28:59;;;;;;;6.78;3.17;;;;;;;25.73;29.98;94776.91;4959055;28;20043;-33
2020/12/06 07:31:25;;;;;;;4.43;2.67;;;;;;;25.74;30.15;94791.66;4952984;28;20042;-34
2020/12/06 07:33:51;;;;;;;5.43;2.05;;;;;;;25.76;30.20;94796.78;4955815;28;20038;-34
2020/12/06 07:36:17;;;;;;;3.60;2.30;;;;;;;25.77;30.38;94782.72;4953533;28;20045;-34
2020/12/06 07:38:43;;;;;;;7.35;1.77;;;;;;;25.77;30.33;94788.81;4946221;28;20055;-37
2020/12/06 07:41:08;;;;;;;4.00;2.05;;;;;;;25.79;30.49;94786.06;4949113;28;20133;-30
2020/12/06 07:43:34;;;;;;;2.08;1.73;;;;;;;25.79;30.29;94786.88;4957537;28;20050;-31
2020/12/06 07:46:13;;;;;;;2.80;2.00;;;;;;;25.79;30.55;94784.25;4956162;28;20081;-35
2020/12/06 07:48:39;;;;;;;5.88;2.03;;;;;;;25.80;30.43;94788.53;4956977;28;20047;-36
2020/12/06 07:51:05;;;;;;;3.40;1.92;;;;;;;25.81;30.46;94784.94;4952165;28;20303;-34
2020/12/06 07:53:48;;;;;;;2.28;1.92;;;;;;;25.81;30.49;94789.34;4954187;28;20059;-30
2020/12/06 07:56:16;;;;;;;9.95;3.28;;;;;;;25.80;30.04;94780.69;4958069;28;20093;-31
2020/12/06 07:58:43;;;;;;;3.10;1.88;;;;;;;25.81;30.53;94795.44;4954504;28;20101;-38
2020/12/06 08:01:12;;;;;;;2.30;1.75;;;;;;;25.80;30.62;94801.66;4950922;28;20039;-31
2020/12/06 08:03:37;;;;;;;2.45;2.00;;;;;;;25.79;30.74;94805.25;4956028;28;20031;-38
2020/12/06 08:06:03;;;;;;;4.63;1.90;;;;;;;25.81;30.72;94808.56;4951486;28;20046;-36
2020/12/06 08:08:33;;;;;;;2.60;1.90;;;;;;;25.81;30.71;94810.34;4956517;28;20161;-30
2020/12/06 08:10:59;;;;;;;2.67;1.60;;;;;;;25.75;30.87;94795.97;4956004;28;20108;-34
2020/12/06 08:13:25;;;;;;;3.53;1.88;;;;;;;25.81;30.84;94805.94;4953463;28;20038;-34
2020/12/06 08:15:50;;;;;;;2.97;1.70;;;;;;;25.82;30.73;94807.59;4953981;28;20074;-34
2020/12/06 08:18:17;;;;;;;2.80;1.65;;;;;;;25.83;30.88;94803.19;4959322;28;20046;-33
2020/12/06 08:20:55;;;;;;;3.50;1.77;;;;;;;25.83;30.99;94800.56;4955223;28;20596;-36
2020/12/06 08:23:33;;;;;;;2.60;1.85;;;;;;;25.82;30.87;94791.84;4955611;28;20571;-34
2020/12/06 08:25:59;;;;;;;2.40;1.80;;;;;;;25.83;30.93;94796.13;4959160;28;20042;-35
2020/12/06 08:28:24;;;;;;;2.53;1.48;;;;;;;25.85;31.00;94803.06;4958559;28;20050;-39
2020/12/06 08:30:50;;;;;;;2.20;1.70;;;;;;;25.84;30.86;94807.47;4965080;28;20050;-39
2020/12/06 08:33:24;;;;;;;3.45;1.60;;;;;;;25.87;30.71;94809.00;4955918;28;20042;-36
2020/12/06 08:35:56;;;;;;;2.25;1.48;;;;;;;25.88;30.85;94808.03;4955692;28;20046;-33
2020/12/06 08:38:28;;;;;;;3.28;1.90;;;;;;;25.87;30.69;94793.25;4954702;28;20147;-36
2020/12/06 08:41:07;;;;;;;3.20;1.60;;;;;;;25.89;31.04;94789.53;4950695;28;20325;-36
2020/12/06 08:44:02;;;;;;;4.80;1.88;;;;;;;25.90;31.03;94793.00;4952620;28;20038;-29
2020/12/06 08:46:28;;;;;;;4.78;2.92;;;;;;;25.80;30.47;94761.47;4960380;28;20043;-29
2020/12/06 08:48:55;;;;;;;4.63;2.00;;;;;;;25.90;30.71;94775.44;4962518;28;20130;-38
2020/12/06 08:51:30;;;;;;;2.50;1.70;;;;;;;25.91;30.82;94769.25;4958488;28;20408;-34
2020/12/06 08:53:56;;;;;;;2.70;1.70;;;;;;;25.92;30.95;94785.81;4959134;28;20105;-31
2020/12/06 08:56:32;;;;;;;3.25;1.88;;;;;;;25.93;30.92;94777.00;4959401;28;20046;-35
2020/12/06 08:59:16;;;;;;;2.75;1.55;;;;;;;25.95;31.10;94765.41;4955605;28;20129;-35
2020/12/06 09:01:49;;;;;;;3.55;1.83;;;;;;;25.94;30.96;94757.66;4950707;28;20039;-37
2020/12/06 09:04:15;;;;;;;2.05;1.70;;;;;;;25.94;31.02;94757.66;4956183;28;20219;-36
2020/12/06 09:06:40;;;;;;;2.63;1.85;;;;;;;25.90;30.91;94769.38;4959201;28;20688;-35
2020/12/06 09:09:06;;;;;;;2.60;1.70;;;;;;;25.94;30.99;94776.03;4933744;28;20049;-38
2020/12/06 09:11:32;;;;;;;2.45;1.50;;;;;;;25.94;30.96;94779.47;4955717;28;20043;-34
2020/12/06 09:13:59;;;;;;;1.50;1.40;;;;;;;25.95;31.22;94775.06;4959896;28;20049;-32
2020/12/06 09:16:24;;;;;;;3.50;1.67;;;;;;;25.94;30.90;94784.72;4962666;28;20550;-31
2020/12/06 09:18:50;;;;;;;4.93;3.00;;;;;;;25.93;30.12;94771.75;4959186;28;20055;-34
2020/12/06 09:21:16;;;;;;;6.65;2.30;;;;;;;25.92;30.93;94793.69;4952409;28;20058;-32
2020/12/06 09:23:41;;;;;;;2.28;1.75;;;;;;;25.90;30.98;94790.38;4954207;28;20046;-36
2020/12/06 09:26:07;;;;;;;7.63;2.10;;;;;;;25.90;30.80;94795.63;4956376;28;20038;-41
2020/12/06 09:28:33;;;;;;;4.93;2.10;;;;;;;25.88;30.97;94785.25;4956017;28;20035;-36
2020/12/06 09:30:59;;;;;;;3.50;2.38;;;;;;;25.88;30.93;94781.78;4955605;28;20039;-35
2020/12/06 09:33:25;;;;;;;5.00;2.45;;;;;;;25.86;30.93;94788.97;4954071;28;20480;-37
2020/12/06 09:35:50;;;;;;;3.58;2.38;;;;;;;25.87;30.80;94801.13;4956362;28;20046;-30
2020/12/06 09:38:16;;;;;;;2.83;2.10;;;;;;;25.87;30.78;94804.59;4955767;28;20082;-30
2020/12/06 09:40:42;;;;;;;2.67;2.03;;;;;;;25.88;30.95;94800.16;4950721;28;20047;-34
2020/12/06 09:43:08;;;;;;;3.08;2.10;;;;;;;25.87;30.86;94804.59;4951457;28;20045;-35
2020/12/06 09:45:33;;;;;;;6.07;1.85;;;;;;;25.85;30.95;94810.94;4954266;28;20039;-36
2020/12/06 09:47:59;;;;;;;6.47;2.20;;;;;;;25.81;31.02;94826.94;4956531;28;20492;-33
2020/12/06 09:50:24;;;;;;;3.05;1.95;;;;;;;25.78;31.18;94821.94;4952146;28;20408;-31
2020/12/06 09:52:49;;;;;;;3.40;2.08;;;;;;;25.78;31.20;94815.88;4956631;28;20065;-32
2020/12/06 09:58:00;;;;;;;4.28;1.80;;;;;;;25.76;31.27;94807.28;4953914;28;20053;-35
2020/12/06 10:00:26;;;;;;;4.22;1.95;;;;;;;25.75;31.49;94801.22;4955220;28;20076;-33
2020/12/06 10:02:53;;;;;;;5.32;2.00;;;;;;;25.75;31.42;94803.84;4954071;28;20043;-35
2020/12/06 10:05:18;;;;;;;4.05;1.80;;;;;;;25.78;31.23;94787.81;4952930;28;20046;-35
2020/12/06 10:07:44;;;;;;;7.22;1.73;;;;;;;25.82;31.30;94778.75;4956359;28;20039;-36
2020/12/06 10:10:10;;;;;;;3.05;1.83;;;;;;;25.86;31.32;94770.63;4954607;28;20098;-36
2020/12/06 10:12:36;;;;;;;6.70;1.70;;;;;;;25.89;31.38;94786.09;4954589;28;20054;-34
2020/12/06 10:15:03;;;;;;;3.08;1.77;;;;;;;25.91;31.26;94797.28;4958278;28;20650;-37
2020/12/06 10:17:30;;;;;;;4.70;2.00;;;;;;;25.92;31.21;94796.31;4954058;28;20141;-35
2020/12/06 10:19:56;;;;;;;4.07;1.83;;;;;;;25.95;31.21;94822.31;4951444;28;20046;-36
2020/12/06 10:22:22;;;;;;;4.97;2.63;;;;;;;25.91;29.19;94834.03;4956441;28;20046;-35
2020/12/06 10:24:47;;;;;;;9.52;2.60;;;;;;;25.88;29.80;94842.16;4963318;28;20543;-36
2020/12/06 10:27:14;;;;;;;16.52;2.42;;;;;;;25.87;30.34;94830.84;4957577;28;20039;-34
2020/12/06 10:29:39;;;;;;;8.07;2.45;;;;;;;25.85;30.45;94822.25;4957681;28;20375;-35
2020/12/06 10:32:05;;;;;;;11.00;2.92;;;;;;;25.82;30.94;94818.09;4957253;28;20046;-36
2020/12/06 10:34:31;;;;;;;19.10;4.22;;;;;;;25.80;31.07;94820.03;4959753;28;20082;-34
2020/12/06 10:36:57;;;;;;;18.92;3.83;;;;;;;25.80;30.97;94803.44;4957206;28;20047;-35
2020/12/06 10:39:23;;;;;;;18.77;3.90;;;;;;;25.79;31.15;94786.88;4969076;28;20101;-36
2020/12/06 10:41:55;;;;;;;25.13;4.57;;;;;;;25.82;31.28;94786.59;4962056;28;20138;-35
2020/12/06 10:44:22;;;;;;;18.25;4.30;;;;;;;25.81;31.19;94784.94;4960398;28;20039;-34
2020/12/06 10:46:48;;;;;;;13.43;4.45;;;;;;;25.85;31.33;94784.69;4954602;28;20058;-34
2020/12/06 10:49:14;;;;;;;22.48;4.18;;;;;;;25.88;31.17;94789.66;4965899;28;20271;-34
2020/12/06 10:51:43;;;;;;;16.35;4.40;;;;;;;25.90;31.22;94780.69;4965525;28;20104;-35
2020/12/06 10:54:08;;;;;;;15.77;3.85;;;;;;;25.91;31.02;94787.63;4958129;28;20043;-35
2020/12/06 10:56:35;;;;;;;18.60;4.05;;;;;;;25.91;31.09;94795.50;4958731;28;20073;-35
2020/12/06 10:59:01;;;;;;;13.70;3.80;;;;;;;25.92;31.31;94793.69;4967006;28;20042;-34
2020/12/06 11:01:27;;;;;;;15.02;4.00;;;;;;;25.92;31.48;94791.06;4963741;28;20089;-36
2020/12/06 11:03:52;;;;;;;9.40;3.83;;;;;;;25.92;31.32;94788.44;4960083;28;20120;-35
2020/12/06 11:06:19;;;;;;;10.00;3.28;;;;;;;25.91;31.27;94794.66;4966805;28;20042;-35
2020/12/06 11:08:45;;;;;;;11.88;4.10;;;;;;;25.90;31.40;94790.38;4980388;28;20034;-35
2020/12/06 11:11:13;;;;;;;11.27;3.63;;;;;;;25.89;31.36;94797.41;4971024;28;20893;-35
2020/12/06 11:13:38;;;;;;;12.00;4.15;;;;;;;25.89;31.15;94791.34;4966624;28;20089;-34
2020/12/06 11:16:04;;;;;;;10.90;3.72;;;;;;;25.90;31.34;94785.13;4967045;28;20465;-35
2020/12/06 11:18:30;;;;;;;8.35;3.15;;;;;;;25.90;31.26;94790.38;4965435;28;20559;-34
2020/12/06 11:20:55;;;;;;;14.00;3.47;;;;;;;25.85;31.44;94795.19;4962395;28;20051;-35
2020/12/06 11:23:20;;;;;;;11.07;3.80;;;;;;;25.87;31.43;94801.13;4962391;28;20038;-34
2020/12/06 11:25:46;;;;;;;5.95;2.97;;;;;;;25.86;31.62;94791.59;4965197;28;20042;-34
2020/12/06 11:28:11;;;;;;;8.43;3.40;;;;;;;25.84;31.57;94786.47;4966451;28;20109;-35
2020/12/06 11:30:37;;;;;;;9.05;3.20;;;;;;;25.83;31.63;94788.25;4965765;28;20093;-34
2020/12/06 11:33:03;;;;;;;10.65;3.30;;;;;;;25.84;31.57;94791.72;4968563;28;20042;-34
2020/12/06 11:35:28;;;;;;;7.53;3.20;;;;;;;25.86;31.70;94791.59;4969136;28;20039;-36